createdAt,value
2022-12-08T00:00:09.303Z,3.58
2022-12-08T00:05:29.757Z,5.40
2022-12-08T00:11:01.054Z,8.65
2022-12-08T00:15:52.458Z,5.50
2022-12-08T00:20:57.385Z,4.07
2022-12-08T00:26:02.358Z,4.80
2022-12-08T00:31:10.815Z,7.10
2022-12-08T00:36:13.697Z,3.92
2022-12-08T00:41:16.410Z,5.32
2022-12-08T00:46:17.845Z,4.13
2022-12-08T00:51:19.280Z,7.72
2022-12-08T00:56:20.706Z,5.72
2022-12-08T01:01:22.215Z,6.95
2022-12-08T01:06:23.702Z,5.57
2022-12-08T01:11:25.101Z,7.97
2022-12-08T01:16:28.241Z,6.60
2022-12-08T01:21:29.698Z,6.07
2022-12-08T01:26:31.150Z,5.60
2022-12-08T01:31:32.698Z,8.45
2022-12-08T01:36:37.019Z,7.60
2022-12-08T01:41:38.926Z,6.30
2022-12-08T01:46:41.506Z,7.88
2022-12-08T01:51:58.916Z,5.88
2022-12-08T01:57:07.604Z,9.82
2022-12-08T02:02:10.609Z,5.05
2022-12-08T02:07:12.438Z,4.07
2022-12-08T02:12:13.985Z,7.13
2022-12-08T02:17:15.294Z,8.60
2022-12-08T02:22:45.970Z,2.55
2022-12-08T02:27:59.210Z,4.03
2022-12-08T02:33:03.588Z,3.25
2022-12-08T02:38:04.929Z,3.97
2022-12-08T02:43:13.894Z,4.38
2022-12-08T02:48:15.358Z,3.13
2022-12-08T02:53:16.722Z,4.55
2022-12-08T02:58:20.852Z,2.35
2022-12-08T03:03:32.925Z,3.50
2022-12-08T03:08:34.367Z,3.40
2022-12-08T03:13:41.940Z,3.88
2022-12-08T03:18:47.069Z,6.40
2022-12-08T03:23:50.685Z,4.50
2022-12-08T03:28:52.090Z,4.63
2022-12-08T03:33:54.705Z,6.13
2022-12-08T03:38:56.135Z,5.97
2022-12-08T03:44:01.420Z,5.05
2022-12-08T03:49:02.783Z,6.13
2022-12-08T03:54:04.271Z,5.18
2022-12-08T03:59:06.380Z,2.33
2022-12-08T04:04:07.971Z,5.43
2022-12-08T04:09:09.380Z,2.65
2022-12-08T04:14:10.809Z,3.60
2022-12-08T04:19:12.194Z,6.50
2022-12-08T04:24:13.574Z,6.85
2022-12-08T04:29:14.995Z,6.95
2022-12-08T04:34:16.335Z,4.47
2022-12-08T04:39:17.749Z,5.07
2022-12-08T04:44:19.136Z,10.20
2022-12-08T04:49:20.571Z,3.88
2022-12-08T04:54:21.983Z,4.20
2022-12-08T04:59:23.423Z,4.00
2022-12-08T05:04:24.819Z,4.00
2022-12-08T05:09:26.337Z,3.50
2022-12-08T05:14:27.731Z,3.88
2022-12-08T05:19:29.097Z,3.08
2022-12-08T05:24:30.494Z,3.33
2022-12-08T05:29:31.954Z,4.05
2022-12-08T05:34:33.382Z,3.15
2022-12-08T05:39:34.861Z,4.28
2022-12-08T05:44:36.297Z,2.83
2022-12-08T05:49:37.728Z,3.78
2022-12-08T05:54:39.181Z,6.82
2022-12-08T05:59:40.604Z,4.22
2022-12-08T06:04:42.131Z,4.75
2022-12-08T06:09:43.648Z,4.07
2022-12-08T06:14:45.096Z,5.65
2022-12-08T06:19:46.499Z,4.72
2022-12-08T06:24:47.841Z,3.25
2022-12-08T06:29:49.204Z,5.40
2022-12-08T06:34:50.551Z,6.07
2022-12-08T06:39:52.006Z,7.35
2022-12-08T06:44:53.509Z,3.42
2022-12-08T06:49:54.904Z,3.92
2022-12-08T06:54:56.419Z,5.53
2022-12-08T06:59:57.810Z,5.18
2022-12-08T07:04:59.270Z,8.15
2022-12-08T07:10:00.636Z,3.75
2022-12-08T07:15:02.106Z,6.63
2022-12-08T07:20:04.057Z,5.57
2022-12-08T07:25:05.989Z,6.05
2022-12-08T07:30:07.844Z,5.32
2022-12-08T07:35:09.685Z,6.35
2022-12-08T07:40:11.442Z,5.15
2022-12-08T07:45:12.885Z,5.88
2022-12-08T07:50:14.377Z,4.47
2022-12-08T07:55:15.772Z,7.70
2022-12-08T08:00:17.940Z,7.15
2022-12-08T08:05:20.669Z,6.88
2022-12-08T08:10:23.902Z,7.47
2022-12-08T08:15:25.539Z,9.65
2022-12-08T08:20:27.064Z,6.13
2022-12-08T08:25:28.444Z,2.80
2022-12-08T08:30:29.785Z,8.20
2022-12-08T08:35:31.256Z,9.55
2022-12-08T08:40:32.625Z,5.28
2022-12-08T08:45:34.499Z,7.63
2022-12-08T08:50:37.708Z,8.07
2022-12-08T08:55:40.053Z,2.65
2022-12-08T09:00:43.263Z,7.88
2022-12-08T09:05:44.885Z,5.25
2022-12-08T09:10:46.356Z,4.00
2022-12-08T09:15:47.840Z,5.10
2022-12-08T09:20:49.303Z,9.35
2022-12-08T09:25:50.659Z,7.25
2022-12-08T09:30:52.408Z,9.48
2022-12-08T09:35:53.850Z,7.38
2022-12-08T09:40:55.305Z,9.70
2022-12-08T09:45:56.850Z,6.53
2022-12-08T09:50:58.489Z,9.85
2022-12-08T09:56:02.046Z,8.45
2022-12-08T10:01:03.493Z,8.75
2022-12-08T10:06:11.479Z,8.65
2022-12-08T10:11:19.476Z,5.90
2022-12-08T10:16:34.848Z,7.85
2022-12-08T10:21:36.294Z,6.78
2022-12-08T10:26:37.840Z,9.50
2022-12-08T10:31:39.402Z,9.65
2022-12-08T10:36:47.256Z,4.72
2022-12-08T10:41:51.065Z,7.43
2022-12-08T10:46:52.568Z,7.40
2022-12-08T10:51:55.404Z,10.30
2022-12-08T10:56:57.275Z,4.90
2022-12-08T11:02:00.130Z,6.55
2022-12-08T11:07:02.491Z,11.05
2022-12-08T11:12:14.489Z,9.43
2022-12-08T11:17:15.875Z,5.93
2022-12-08T11:22:26.144Z,8.52
2022-12-08T11:27:27.578Z,11.02
2022-12-08T11:32:29.013Z,7.82
2022-12-08T11:37:35.173Z,8.82
2022-12-08T11:42:46.606Z,8.00
2022-12-08T11:47:55.764Z,8.82
2022-12-08T11:52:58.363Z,9.65
2022-12-08T11:58:04.401Z,11.23
2022-12-08T12:03:09.116Z,10.52
2022-12-08T12:08:23.054Z,9.68
2022-12-08T12:13:44.993Z,14.18
2022-12-08T12:18:46.612Z,11.00
2022-12-08T12:23:47.960Z,8.52
2022-12-08T12:28:58.685Z,10.88
2022-12-08T12:34:08.437Z,5.47
2022-12-08T12:39:12.190Z,8.18
2022-12-08T12:44:13.671Z,7.18
2022-12-08T12:49:33.714Z,11.23
2022-12-08T12:54:35.270Z,7.28
2022-12-08T12:59:36.629Z,6.63
2022-12-08T13:04:38.190Z,10.43
2022-12-08T13:09:39.856Z,8.68
2022-12-08T13:14:46.629Z,7.65
2022-12-08T13:19:51.743Z,7.68
2022-12-08T13:25:14.093Z,10.52
2022-12-08T13:30:34.101Z,8.27
2022-12-08T13:35:39.630Z,6.03
2022-12-08T13:40:41.872Z,8.77
2022-12-08T13:46:52.937Z,6.97
2022-12-08T13:53:15.831Z,8.02
2022-12-08T13:57:03.025Z,7.32
2022-12-08T14:02:05.421Z,6.03
2022-12-08T14:07:08.396Z,9.07
2022-12-08T14:12:15.777Z,7.15
2022-12-08T14:17:21.114Z,7.22
2022-12-08T14:22:23.035Z,4.72
2022-12-08T14:27:25.638Z,7.45
2022-12-08T14:32:32.925Z,7.47
2022-12-08T14:37:37.208Z,9.90
2022-12-08T14:42:43.954Z,7.85
2022-12-08T14:47:48.677Z,8.90
2022-12-08T14:52:50.121Z,7.50
2022-12-08T14:57:51.545Z,9.18
2022-12-08T15:02:53.353Z,8.20
2022-12-08T15:07:59.926Z,7.57
2022-12-08T15:13:22.012Z,12.35
2022-12-08T15:18:29.582Z,9.13
2022-12-08T15:23:41.802Z,9.10
2022-12-08T15:28:43.183Z,7.57
2022-12-08T15:33:44.683Z,7.95
2022-12-08T15:38:46.050Z,9.95
2022-12-08T15:43:47.485Z,9.32
2022-12-08T15:48:52.383Z,10.68
2022-12-08T15:53:56.448Z,11.68
2022-12-08T15:58:58.502Z,11.23
2022-12-08T16:09:32.474Z,10.43
2022-12-08T16:15:39.741Z,10.88
2022-12-08T16:19:55.714Z,10.20
2022-12-08T16:25:05.029Z,11.27
2022-12-08T16:30:17.264Z,11.83
2022-12-08T16:35:18.710Z,13.05
2022-12-08T16:40:20.188Z,8.70
2022-12-08T16:45:22.923Z,11.70
2022-12-08T16:50:26.654Z,12.48
2022-12-08T16:55:28.174Z,19.35
2022-12-08T17:00:29.967Z,18.33
2022-12-08T17:05:31.736Z,15.82
2022-12-08T17:10:34.557Z,16.15
2022-12-08T17:15:35.976Z,18.00
2022-12-08T17:20:39.224Z,17.58
2022-12-08T17:25:40.585Z,21.50
2022-12-08T17:30:41.988Z,21.65
2022-12-08T17:35:49.985Z,17.50
2022-12-08T17:40:58.284Z,18.17
2022-12-08T17:46:00.059Z,22.27
2022-12-08T17:51:01.504Z,27.90
2022-12-08T17:56:02.903Z,22.40
2022-12-08T18:01:07.642Z,27.02
2022-12-08T18:06:13.107Z,22.73
2022-12-08T18:11:15.789Z,22.23
2022-12-08T18:16:18.529Z,26.67
2022-12-08T18:21:23.591Z,27.73
2022-12-08T18:26:25.252Z,24.55
2022-12-08T18:31:27.041Z,29.30
2022-12-08T18:36:28.504Z,24.98
2022-12-08T18:41:29.911Z,26.88
2022-12-08T18:46:31.404Z,28.88
2022-12-08T18:51:32.900Z,30.23
2022-12-08T18:56:35.188Z,31.10
2022-12-08T19:01:37.704Z,32.90
2022-12-08T19:06:39.753Z,30.02
2022-12-08T19:11:42.608Z,31.15
2022-12-08T19:16:44.021Z,29.88
2022-12-08T19:21:47.271Z,30.38
2022-12-08T19:26:48.699Z,28.98
2022-12-08T19:32:06.956Z,32.60
2022-12-08T19:37:12.996Z,31.63
2022-12-08T19:42:39.266Z,35.78
2022-12-08T19:47:41.119Z,35.80
2022-12-08T19:52:42.941Z,37.63
2022-12-08T19:57:44.390Z,32.75
2022-12-08T20:02:45.972Z,33.47
2022-12-08T20:07:47.577Z,34.38
2022-12-08T20:12:49.018Z,35.17
2022-12-08T20:17:50.409Z,34.95
2022-12-08T20:22:51.720Z,35.63
2022-12-08T20:27:53.194Z,31.90
2022-12-08T20:32:54.589Z,36.70
2022-12-08T20:37:55.957Z,30.00
2022-12-08T20:42:57.350Z,30.05
2022-12-08T20:47:59.939Z,28.90
2022-12-08T20:53:01.555Z,30.63
2022-12-08T20:58:02.920Z,29.80
2022-12-08T21:03:04.513Z,31.33
2022-12-08T21:08:06.994Z,31.40
2022-12-08T21:13:08.699Z,32.80
2022-12-08T21:18:12.175Z,33.40
2022-12-08T21:23:14.108Z,36.28
2022-12-08T21:28:15.686Z,41.38
2022-12-08T21:33:17.805Z,43.53
2022-12-08T21:38:19.455Z,39.42
2022-12-08T21:43:21.648Z,39.10
2022-12-08T21:48:23.346Z,38.47
2022-12-08T21:53:26.471Z,42.55
2022-12-08T21:58:28.230Z,43.70
2022-12-08T22:03:29.973Z,51.95
2022-12-08T22:08:32.035Z,44.80
2022-12-08T22:13:34.426Z,45.53
2022-12-08T22:18:36.644Z,43.65
2022-12-08T22:23:38.080Z,41.00
2022-12-08T22:28:41.093Z,48.17
2022-12-08T22:33:43.483Z,44.50
2022-12-08T22:38:44.994Z,41.75
2022-12-08T22:43:46.806Z,43.58
2022-12-08T22:48:48.527Z,40.88
2022-12-08T22:53:50.414Z,39.03
2022-12-08T22:58:53.319Z,39.90
2022-12-08T23:03:55.181Z,38.00
2022-12-08T23:08:56.767Z,37.15
2022-12-08T23:14:00.368Z,35.45
2022-12-08T23:19:01.886Z,36.85
2022-12-08T23:24:03.623Z,35.95
2022-12-08T23:29:05.304Z,32.70
2022-12-08T23:34:06.925Z,36.17
2022-12-08T23:39:08.302Z,41.40
2022-12-08T23:44:12.043Z,37.13
2022-12-08T23:49:13.559Z,37.80
2022-12-08T23:54:15.585Z,40.45
2022-12-08T23:59:17.216Z,38.65
